European Hang Gliding Championship Class 1 2018

2018-07-08 to 2018-07-21

Task 2

2018-07-11 Task 2

Race to Goal 131.2 km

Provisional

No Leg Dist. Id Radius Open Close Coordinates Altitude
1 0.0 km D01 400 m 12:15 15:15 Lat: 41.3435 Lon: 21.25683 1410 m
2 SS 4.4 km B23 22000 m 13:45 19:00 Lat: 41.57783 Lon: 21.333 1530 m
3 23.5 km B23 3000 m 13:45 19:00 Lat: 41.57783 Lon: 21.333 1530 m
4 90.4 km B39 8000 m 13:45 19:00 Lat: 40.90583 Lon: 21.58967 700 m
5 ES 131.2 km A10 400 m 13:45 19:00 Lat: 41.33633 Lon: 21.45017 620 m
StartGate(s): 13:45, 14:15

# Id Name Nat Glider Sponsor SS ES Time km/h Distance Dist.
Points
Lead.
Points
Time
Points
Arr.
Pos.
Points
Total
1 55 Petr Benes M CZE Aeros combat 13:45:00 16:34:35 02:49:35 44.9 131.23 384.3 101.9 431.0 77.0 994
2 124 Josh Woods M AUS Moyes RX 3.5 Pro 13:45:00 16:36:17 02:51:17 44.4 131.23 384.3 101.6 402.6 68.3 957
3 56 Petr Polách M CZE Aeros Combat 13,5 GT 13:45:00 16:36:16 02:51:16 44.4 131.23 384.3 94.4 402.8 71.1 953
4 54 Dan Vyhnalik M CZE Aeros Combat 13.5 GT 13:45:00 16:36:07 02:51:07 44.5 131.23 384.3 87.5 404.5 74.0 950
5 33 Alessandro Ploner M ITA 13:45:00 16:41:43 02:56:43 43.1 131.23 384.3 107.7 357.3 63.1 912
6 32 Christian Ciech M ITA Laminar Icaro 2000 13:45:00 16:41:33 02:56:33 43.1 131.23 384.3 68.1 358.4 65.7 877
7 36 Marco Laurenzi M ITA Icaro Laminar 13:45:00 16:41:45 02:56:45 43.1 131.23 384.3 73.8 357.0 60.6 876
8 92 Arne Tänzer M NED Icaro 2000 - Laminar 13:45:00 16:41:45 02:56:45 43.1 131.23 384.3 73.2 357.0 60.6 875
9 70 Primoz Gricar M GER 13:45:00 16:41:57 02:56:57 43.0 131.23 384.3 75.1 355.7 55.9 871
10 35 Filippo Oppici M ITA WILLS WING T2C 144 13:45:00 16:42:16 02:57:16 42.9 131.23 384.3 73.2 353.5 53.6 865
11 106 Olav Opsanger M NOR Moyes RX 3.5 Pro 13:45:00 16:42:39 02:57:39 42.8 131.23 384.3 66.8 351.0 51.5 854
11 43 Oliver Chitty M GBR Moyes RX5 Pro Crosscountry, Moyes, Flytec 13:45:00 16:42:55 02:57:55 42.8 131.23 384.3 73.1 349.2 47.4 854
13 39 Grant Crossingham M GBR Moyes RX 3.5 Pro 13:45:00 16:42:57 02:57:57 42.8 131.23 384.3 72.7 349.0 45.5 852
14 42 Carl Wallbank M GBR Moyes RX 3.5 Pro 13:45:00 16:42:53 02:57:53 42.8 131.23 384.3 65.9 349.4 49.4 849
15 77 Balazs Ujhelyi M HUN Moyes RX 3.5 Pro 13:45:00 16:43:38 02:58:38 42.6 131.23 384.3 73.2 344.6 43.7 846
16 123 Steve Blenkinsop M AUS Moyes RX 3.5 13:45:00 16:43:44 02:58:44 42.6 131.23 384.3 72.5 344.0 42.0 843
17 38 Tullio Gervasoni M ITA Wills Wing T2C 13:45:00 16:43:57 02:58:57 42.5 131.23 384.3 70.3 342.6 40.3 838
18 46 Malcolm Brown M GBR Wills Wing T2C 13:45:00 16:45:03 03:00:03 42.3 131.23 384.3 64.7 335.8 38.7 824
19 71 Roland Wöhrle M GER Moyes RX 3.5 13:45:00 16:45:49 03:00:49 42.1 131.23 384.3 68.9 331.2 37.2 822
20 63 Antoine Saraf M FRA Aeros Combat C12.7 13:45:00 16:45:53 03:00:53 42.1 131.23 384.3 63.9 330.8 35.7 815
21 100 Anton Struganov M RUS Moyes RX4 13:45:00 16:50:05 03:05:05 41.1 131.23 384.3 65.6 307.3 34.3 792
22 34 Davide Guiducci M ITA Laminar 13.2 13:45:00 16:51:08 03:06:08 40.9 131.23 384.3 68.3 301.8 31.7 786
23 117 Justinas Pleikys M LTU Moyes RX 5 13:45:00 16:50:22 03:05:22 41.1 131.23 384.3 54.3 305.8 33.0 777
24 79 László Ökrös M HUN Moyes RX 3.5 13:45:00 16:52:16 03:07:16 40.6 131.23 384.3 64.8 296.0 30.5 776
25 41 Dave Matthews M GBR Moyer RX 3.5 13:45:00 16:52:17 03:07:17 40.6 131.23 384.3 64.8 295.9 29.4 774
26 89 Stanislav Galovec M SLO ICARO 2000, Laminar 14.1 13:45:00 16:52:20 03:07:20 40.6 131.23 384.3 63.5 295.6 28.3 772
26 40 Gordon Rigg M GBR Moyes RX 3.5 Pro 13:45:00 16:52:25 03:07:25 40.6 131.23 384.3 65.7 295.2 26.3 772
28 45 Andy Hollidge M GBR Moyes RX 3.5 13:45:00 16:52:21 03:07:21 40.6 131.23 384.3 61.9 295.6 27.3 769
29 59 Vlastimil Bartas M CZE 13:45:00 16:52:51 03:07:51 40.5 131.23 384.3 65.9 293.0 23.7 767
30 93 Gijs Wanders M NED Wills Wing T2C 144 13:45:00 16:52:37 03:07:37 40.6 131.23 384.3 61.9 294.2 25.4 766
31 44 Darren Brown M GBR Wills Wing T2C 13:45:00 16:52:51 03:07:51 40.5 131.23 384.3 63.7 293.0 23.7 765
32 60 Francois Isoard M FRA Aeros Combat GT 12,7 13:45:00 16:53:07 03:08:07 40.5 131.23 384.3 63.4 291.7 22.3 762
32 51 Dietmar Tschabrun M AUT Aeros Combat 12,7 GT 13:45:00 16:53:26 03:08:26 40.4 131.23 384.3 67.0 290.1 20.4 762
32 61 Eric Mathurin M FRA Moyes RX 3.5 Pro 13:45:00 16:52:48 03:07:48 40.5 131.23 384.3 59.4 293.3 24.6 762
35 90 Peter Kejzar M SLO Aeros Combat 12,7 13:45:00 16:53:32 03:08:32 40.4 131.23 384.3 66.6 289.6 19.4 760
36 47 Kathleen Rigg F GBR Moyes RX 3.5 13:45:00 16:53:28 03:08:28 40.4 131.23 384.3 64.3 289.9 19.9 758
36 122 Trent Brown M AUS Moyes RX 3.5 13:45:00 16:53:19 03:08:19 40.4 131.23 384.3 61.5 290.7 21.6 758
38 113 Nikola Barakovski M MKD 13:45:00 16:53:42 03:08:42 40.3 131.23 384.3 65.2 288.8 19.0 757
38 48 Thomas Weissenberger M AUT Icaro 13:45:00 16:53:43 03:08:43 40.3 131.23 384.3 65.8 288.7 18.5 757
40 114 Mikolaj Przezdziak M POL Aeros Combat 12.7gt 13:45:00 16:53:25 03:08:25 40.4 131.23 384.3 57.5 290.2 21.0 753
41 108 Johnny Nilssen M NOR Icaro Laminar 2018 13:45:00 16:56:39 03:11:39 39.7 131.23 384.3 67.1 274.5 17.8 744
42 118 Saulius Guobuzas M LTU Moyes RS 4 13:45:00 16:56:22 03:11:22 39.8 131.23 384.3 61.0 275.8 18.2 739
43 125 Brad Porter M AUS Moyes RX 3.5 Pro 13:45:00 16:59:28 03:14:28 39.1 131.23 384.3 69.2 261.5 16.9 732
44 110 Jochen Zeischka M BEL Moyes RX 5 Pro 13:45:00 16:57:30 03:12:30 39.5 131.23 384.3 56.7 270.5 17.5 729
45 73 Corinna Schwiegershausen F GER Moyes RX 3 13:45:00 16:58:14 03:13:14 39.4 131.23 384.3 54.3 267.1 17.2 723
46 95 Joost Eertman M NED 13:45:00 17:01:01 03:16:01 38.8 131.23 384.3 60.3 254.5 16.7 716
47 128 Nagusa Akira M JPN T2C144 13:45:00 17:07:53 03:22:53 37.5 131.23 384.3 56.7 225.1 16.5 683
48 132 Pedro L. Garcia M USA T2C 144 13:45:00 17:14:17 03:29:17 36.4 131.23 384.3 53.2 199.5 16.3 653
49 72 Gerd Dönhuber M GER Moyes RX 3.5 13:45:00 17:16:53 03:31:53 35.9 131.23 384.3 53.1 189.5 16.1 643
50 49 Christian Preininger M AUT Moyes Litespeed S3,5 13:45:00 17:19:50 03:34:50 35.4 131.23 384.3 29.6 178.4 16.0 608
51 121 Jonny Durand Jnr M AUS Moyes RX 3.5 PRO 13:45:00 17:25:22 03:40:22 34.5 131.23 384.3 40.3 158.2 15.8 599
52 115 Jaroslav Sojka M SVK Moyes RX 5 Pro 13:45:00 17:21:59 03:36:59 35.1 131.23 384.3 23.0 170.5 15.9 594
53 66 Benedikt Braun M SUI Combat 12.7 C 13:45:00 17:35:01 03:50:01 33.1 131.23 384.3 25.7 124.7 15.7 550
54 74 Jörg Bajewski M GER Laminar Z9 17 13:45:00 17:55:02 04:10:02 30.4 131.23 384.3 35.9 60.3 15.6 496
55 107 Erland Åmot M NOR Moyes RX 3.5 Pro 13:45:00 17:57:10 04:12:10 30.2 131.23 384.3 7.9 53.8 15.5 462
56 67 Damien Zahn M SUI Moyes RX 3 13:45:00 130.65 383.3 62.4 446
57 58 Petr Tucek M CZE 13:45:00 127.29 374.9 62.3 437
58 101 Sasha Serebrennikova F RUS Moyes RX 3 Pro 13:45:00 124.23 365.7 58.2 424
59 37 Anton Moroder M ITA laminar 13:45:00 121.58 354.7 68.0 423
60 126 Guy Hubbard M AUS Moyes RX 3.5 Pro 13:45:00 122.49 358.9 53.0 412
61 103 Alexander Barvinskiy M RUS Aeros Combat 12.7 13:45:00 131.00 384.0 23.4 407
62 88 Franc Peternel M SLO WILLS WING T2C 144 13:45:00 123.85 364.4 40.8 405
63 65 Eric Wyss M FRA Aeros Combat 13:45:00 18:52:42 05:07:42 24.7 131.23 384.3 15.4 400
64 81 Zsigmond Toth M HUN Combat Gt 13.5 13:45:00 120.33 348.3 1.9 350
65 80 Atilla Kis M HUN Aeros Combat 13:45:00 117.69 334.8 9.6 344
66 75 Kajo Clauß M GER Aeros Combat 14:15:00 111.51 305.8 306
67 102 Anton Bondarenko M RUS T2C 144 13:45:00 106.69 290.6 291
68 53 Alexander Sigl M AUT WW T2C 144 13:45:00 78.52 238.9 239
68 129 Hiroshi Onuma M JPN ICARO2000 Laminar 13:45:00 78.54 239.0 239
70 104 Walentin Teraud M RUS Moyes RX 3.5 13:45:00 77.87 237.3 237
71 109 Tormod Helgesen M NOR Moyes RX 3.5 13:45:00 68.93 210.3 210
72 98 Emiel Jansen M NED Laminar 14.8 (2018) 13:45:00 66.86 202.9 203
73 94 Mario Campanella M NED WW - T2C 13:45:00 57.96 179.9 180
74 87 Matjaz Klemencic M SLO Moyes RX 3.5 Pro 13:45:00 57.58 178.8 179
75 52 Raimund Kaiser M AUT Icaro Laminar 13.2 13:45:00 57.28 177.8 178
76 82 Daniel Martín Mota M ESP 13:45:00 56.12 173.5 174
77 62 Christian Pollet M FRA 13:45:00 54.72 167.9 168
78 127 Yoko Sano F JPN T2C136 13:45:00 53.29 162.1 162
79 111 Kamil DEMİRKAN M TUR Aeros Combat GT 13:45:00 53.12 161.4 161
80 57 Jiri Gut M CZE Wills Wing T2C 13:45:00 49.70 143.9 144
81 96 Araldo van de Kraats M NED Icaro2000 Laminar 13:45:00 40.88 104.8 105
82 133 Konrad Heilmann M BRA Moyes RX 3.5 Pro 13:45:00 33.76 89.1 89
83 112 Canberg Özveren M TUR Aeros Combat GT 13:45:00 30.79 81.7 82
84 130 Evan Smith M CAN T2C 144 13:45:00 23.59 62.7 63
85 97 Sander Van Schaik M NED Icaro Laminar 7.00 28.8 29
85 91 Janez Grm M SLO Combat 13.2 7.00 28.8 29
85 99 Gennadiy Khramov M RUS WillsWing 144 7.00 28.8 29
85 68 Alain Woeffray M SUI Wills Wing T2C 154 13:45:00 7.00 28.8 29
85 105 Anatoly Reyter M RUS Wills Wing T2C-136 7.00 28.8 29

Pilots absent from task (ABS)

Id Name

Pilots not yet processed (NYP)

Id Name

Task statistics

param value
ss_distance 126.838
task_distance 131.228
launch_to_ess_distance 131.228
no_of_pilots_present 89
no_of_pilots_flying 89
no_of_pilots_lo 33
no_of_pilots_reaching_nom_dist 67
no_of_pilots_reaching_es 56
no_of_pilots_reaching_goal 56
sum_flown_distance 9643.848
best_dist 131.228
best_time 2.82638888888889
worst_time 5.12833333333333
no_of_pilots_in_competition 89
no_of_pilots_landed_before_stop 0
sum_dist_over_min 9037.645
sum_real_dist_over_min 9037.645
sum_flown_distances 9643.848
best_real_dist 131.228
last_start_time 2018-07-11T14:15:00+02:00
first_start_time 2018-07-11T13:45:00+02:00
first_finish_time 2018-07-11T16:34:35+02:00
max_time_to_get_time_points 4.50757563904156
no_of_pilots_with_time_points 55
goalratio 0.629213483146067
arrival_weight 0.0769594797785434
departure_weight 0
leading_weight 0.107743271689961
time_weight 0.430973086759843
distance_weight 0.384324161771652
smallest_leading_coefficient 1.88614159344937
available_points_distance 384.324161771652
available_points_time 430.973086759843
available_points_departure 0
available_points_leading 107.743271689961
available_points_arrival 76.9594797785435
time_validity 1
launch_validity 1
distance_validity 1
stop_validity 1
day_quality 1
ftv_day_validity 1
time_points_stop_correction 0

Scoring formula settings

param value
id GAP2016
min_dist 7
nom_dist 80
nom_time 1.75
nom_launch 0.96
nom_goal 0.3
day_quality_override 0
bonus_gr 5
jump_the_gun_factor 2
jump_the_gun_max 300
normalize_1000_before_day_quality 0
time_points_if_not_in_goal 0.8
use_1000_points_for_max_day_quality 0
use_arrival_position_points 1
use_arrival_time_points 0
use_departure_points 0
use_difficulty_for_distance_points 1
use_distance_points 1
use_distance_squared_for_LC 1
use_leading_points 1
use_semi_circle_control_zone_for_goal_line 0
use_time_points 1
scoring_altitude QNH
final_glide_decelerator none
no_final_glide_decelerator_reason
min_time_span_for_valid_task 90
score_back_time 15
use_proportional_leading_weight_if_nobody_in_goal 0
double_leading_weight 0
Report created: 2018-07-11T21:33:59+02:00

FS development, maintenance and support by